createdAt,value
2022-09-14T00:01:30.701Z,5.50
2022-09-14T00:04:07.704Z,3.70
2022-09-14T00:06:35.682Z,7.10
2022-09-14T00:09:06.954Z,6.00
2022-09-14T00:11:36.112Z,3.05
2022-09-14T00:14:05.096Z,3.08
2022-09-14T00:16:35.177Z,5.40
2022-09-14T00:19:06.443Z,3.08
2022-09-14T00:21:38.737Z,6.00
2022-09-14T00:24:07.455Z,3.90
2022-09-14T00:26:35.322Z,4.68
2022-09-14T00:29:05.157Z,6.38
2022-09-14T00:31:35.198Z,4.10
2022-09-14T00:34:03.461Z,3.92
2022-09-14T00:36:31.580Z,4.43
2022-09-14T00:39:00.914Z,3.63
2022-09-14T00:41:32.576Z,4.70
2022-09-14T00:44:01.980Z,5.88
2022-09-14T00:46:31.829Z,4.78
2022-09-14T00:49:04.385Z,5.03
2022-09-14T00:51:33.975Z,4.03
2022-09-14T00:54:07.032Z,6.40
2022-09-14T00:56:35.026Z,5.10
2022-09-14T00:59:09.709Z,4.65
2022-09-14T01:01:37.274Z,4.43
2022-09-14T01:04:04.754Z,4.95
2022-09-14T01:06:47.765Z,4.32
2022-09-14T01:09:44.245Z,2.78
2022-09-14T01:12:46.505Z,3.80
2022-09-14T01:15:17.960Z,4.88
2022-09-14T01:17:45.089Z,2.88
2022-09-14T01:20:29.729Z,4.20
2022-09-14T01:23:30.728Z,3.67
2022-09-14T01:26:36.032Z,3.28
2022-09-14T01:29:27.671Z,3.90
2022-09-14T01:32:03.396Z,2.08
2022-09-14T01:34:57.239Z,2.72
2022-09-14T01:37:44.520Z,4.47
2022-09-14T01:40:25.088Z,3.13
2022-09-14T01:42:58.751Z,4.32
2022-09-14T01:45:27.637Z,4.78
2022-09-14T01:48:00.353Z,3.67
2022-09-14T01:50:35.743Z,5.40
2022-09-14T01:53:07.482Z,2.50
2022-09-14T01:55:44.382Z,3.53
2022-09-14T01:58:24.088Z,6.50
2022-09-14T02:00:54.213Z,4.53
2022-09-14T02:03:37.496Z,6.15
2022-09-14T02:06:20.769Z,3.88
2022-09-14T02:11:15.435Z,4.80
2022-09-14T02:13:42.847Z,4.15
2022-09-14T02:16:10.426Z,5.00
2022-09-14T02:18:39.105Z,3.92
2022-09-14T02:21:16.417Z,3.58
2022-09-14T02:23:43.812Z,3.55
2022-09-14T02:26:11.809Z,3.70
2022-09-14T02:28:39.171Z,4.30
2022-09-14T02:31:34.272Z,5.60
2022-09-14T02:34:07.201Z,6.57
2022-09-14T02:36:40.300Z,4.50
2022-09-14T02:39:34.237Z,4.32
2022-09-14T02:42:29.824Z,4.50
2022-09-14T02:45:18.372Z,4.85
2022-09-14T02:48:20.407Z,5.07
2022-09-14T02:51:16.223Z,6.50
2022-09-14T02:53:51.824Z,4.75
2022-09-14T02:56:20.558Z,5.25
2022-09-14T02:58:48.101Z,9.27
2022-09-14T03:01:20.421Z,3.65
2022-09-14T03:03:47.655Z,5.25
2022-09-14T03:06:15.413Z,4.35
2022-09-14T03:08:43.893Z,4.05
2022-09-14T03:11:11.284Z,4.45
2022-09-14T03:13:39.170Z,3.90
2022-09-14T03:16:15.198Z,5.03
2022-09-14T03:18:43.037Z,7.18
2022-09-14T03:21:12.862Z,3.80
2022-09-14T03:23:45.860Z,4.72
2022-09-14T03:26:17.093Z,5.03
2022-09-14T03:28:45.445Z,3.30
2022-09-14T03:31:13.427Z,5.20
2022-09-14T03:33:40.948Z,4.28
2022-09-14T03:36:17.098Z,7.43
2022-09-14T03:38:49.554Z,5.03
2022-09-14T03:41:17.376Z,3.75
2022-09-14T03:43:45.282Z,6.65
2022-09-14T03:46:17.813Z,4.53
2022-09-14T03:48:45.146Z,6.03
2022-09-14T03:51:14.282Z,5.72
2022-09-14T03:53:43.230Z,4.43
2022-09-14T03:56:15.443Z,5.55
2022-09-14T03:58:43.844Z,4.78
2022-09-14T04:01:16.242Z,5.57
2022-09-14T04:03:44.099Z,4.75
2022-09-14T04:06:11.779Z,3.35
2022-09-14T04:08:41.154Z,5.60
2022-09-14T04:11:16.759Z,5.40
2022-09-14T04:13:44.597Z,4.95
2022-09-14T04:16:12.114Z,4.78
2022-09-14T04:18:39.431Z,9.90
2022-09-14T04:21:10.656Z,8.45
2022-09-14T04:24:02.988Z,5.53
2022-09-14T04:26:28.580Z,4.35
2022-09-14T04:28:56.821Z,4.32
2022-09-14T04:31:24.681Z,6.82
2022-09-14T04:33:53.407Z,6.43
2022-09-14T04:36:23.152Z,7.13
2022-09-14T04:38:54.051Z,4.63
2022-09-14T04:41:22.352Z,5.15
2022-09-14T04:43:51.020Z,3.85
2022-09-14T04:46:23.796Z,8.02
2022-09-14T04:51:25.367Z,4.82
2022-09-14T04:53:55.274Z,5.82
2022-09-14T04:56:24.262Z,4.55
2022-09-14T04:58:56.946Z,4.57
2022-09-14T05:01:29.363Z,7.93
2022-09-14T05:03:57.613Z,5.63
2022-09-14T05:06:29.934Z,6.45
2022-09-14T05:08:58.017Z,6.38
2022-09-14T05:11:28.068Z,6.68
2022-09-14T05:13:57.804Z,4.68
2022-09-14T05:16:36.850Z,6.40
2022-09-14T05:19:11.004Z,5.88
2022-09-14T05:21:38.249Z,7.97
2022-09-14T05:24:12.683Z,6.80
2022-09-14T05:26:40.005Z,6.68
2022-09-14T05:29:07.252Z,5.50
2022-09-14T05:31:34.527Z,6.57
2022-09-14T05:34:01.669Z,4.47
2022-09-14T05:36:28.943Z,8.02
2022-09-14T05:38:58.092Z,7.90
2022-09-14T05:41:25.195Z,7.57
2022-09-14T05:43:52.409Z,6.75
2022-09-14T05:46:22.712Z,8.23
2022-09-14T05:48:51.954Z,8.45
2022-09-14T05:51:23.153Z,7.70
2022-09-14T05:53:52.198Z,5.93
2022-09-14T05:56:21.133Z,7.00
2022-09-14T05:58:49.134Z,9.88
2022-09-14T06:01:25.386Z,7.25
2022-09-14T06:03:57.732Z,7.75
2022-09-14T06:06:25.329Z,7.75
2022-09-14T06:08:54.353Z,8.73
2022-09-14T06:11:24.753Z,10.40
2022-09-14T06:13:52.151Z,8.05
2022-09-14T06:16:21.276Z,11.52
2022-09-14T06:18:49.761Z,8.40
2022-09-14T06:21:19.545Z,9.77
2022-09-14T06:23:48.389Z,11.07
2022-09-14T06:26:16.863Z,11.48
2022-09-14T06:28:44.200Z,5.60
2022-09-14T06:31:15.871Z,9.68
2022-09-14T06:33:46.784Z,8.77
2022-09-14T06:36:19.799Z,8.90
2022-09-14T06:38:50.078Z,6.75
2022-09-14T06:41:20.578Z,5.15
2022-09-14T06:43:49.136Z,9.35
2022-09-14T06:46:22.089Z,8.65
2022-09-14T06:48:56.745Z,10.77
2022-09-14T06:51:32.441Z,7.68
2022-09-14T06:54:01.181Z,9.05
2022-09-14T06:56:31.119Z,11.88
2022-09-14T06:58:59.448Z,10.45
2022-09-14T07:01:27.845Z,9.77
2022-09-14T07:03:55.505Z,10.98
2022-09-14T07:06:24.601Z,8.82
2022-09-14T07:08:52.700Z,11.80
2022-09-14T07:11:22.167Z,5.53
2022-09-14T07:13:49.883Z,9.80
2022-09-14T07:16:17.170Z,10.40
2022-09-14T07:18:44.745Z,9.23
2022-09-14T07:21:14.734Z,12.25
2022-09-14T07:23:43.932Z,8.50
2022-09-14T07:26:15.093Z,10.77
2022-09-14T07:28:44.560Z,11.27
2022-09-14T07:31:33.005Z,7.38
2022-09-14T07:34:03.065Z,9.48
2022-09-14T07:36:34.819Z,14.38
2022-09-14T07:39:07.103Z,8.32
2022-09-14T07:44:04.100Z,9.07
2022-09-14T07:46:37.399Z,7.03
2022-09-14T07:49:05.152Z,5.82
2022-09-14T07:51:34.961Z,8.07
2022-09-14T07:54:02.186Z,7.57
2022-09-14T07:59:36.035Z,6.13
2022-09-14T08:02:06.278Z,6.30
2022-09-14T08:04:36.279Z,8.23
2022-09-14T08:07:03.855Z,6.07
2022-09-14T08:09:31.265Z,8.25
2022-09-14T08:11:58.344Z,5.20
2022-09-14T08:14:25.886Z,7.45
2022-09-14T08:16:53.300Z,7.85
2022-09-14T08:19:23.626Z,14.77
2022-09-14T08:21:51.434Z,4.65
2022-09-14T08:24:21.347Z,3.97
2022-09-14T08:26:49.203Z,4.47
2022-09-14T08:29:18.102Z,4.50
2022-09-14T08:31:46.204Z,4.13
2022-09-14T08:34:14.393Z,6.25
2022-09-14T08:36:42.561Z,8.70
2022-09-14T08:39:12.214Z,5.43
2022-09-14T08:41:58.998Z,9.85
2022-09-14T08:44:28.770Z,4.30
2022-09-14T08:47:06.330Z,8.23
2022-09-14T08:49:39.697Z,4.78
2022-09-14T08:52:30.020Z,5.05
2022-09-14T08:55:00.181Z,5.50
2022-09-14T08:57:56.278Z,8.65
2022-09-14T09:00:32.131Z,4.93
2022-09-14T09:03:26.930Z,5.05
2022-09-14T09:06:06.688Z,5.05
2022-09-14T09:09:05.649Z,5.72
2022-09-14T09:11:46.823Z,5.07
2022-09-14T09:14:26.467Z,7.35
2022-09-14T09:16:56.985Z,6.45
2022-09-14T09:19:39.480Z,5.88
2022-09-14T09:22:14.825Z,5.60
2022-09-14T09:24:53.763Z,8.13
2022-09-14T09:27:21.557Z,4.57
2022-09-14T09:29:48.658Z,5.22
2022-09-14T09:32:22.786Z,4.05
2022-09-14T09:35:20.170Z,4.22
2022-09-14T09:38:24.968Z,4.95
2022-09-14T09:41:00.097Z,5.40
2022-09-14T09:43:45.728Z,2.75
2022-09-14T09:46:15.120Z,3.85
2022-09-14T09:48:45.201Z,4.93
2022-09-14T09:51:19.835Z,5.93
2022-09-14T09:53:56.176Z,3.33
2022-09-14T09:56:26.582Z,2.42
2022-09-14T09:58:53.961Z,5.63
2022-09-14T10:01:30.980Z,3.42
2022-09-14T10:04:22.579Z,5.97
2022-09-14T10:06:52.038Z,3.75
2022-09-14T10:09:29.485Z,3.72
2022-09-14T10:12:04.909Z,3.58
2022-09-14T10:14:34.725Z,3.17
2022-09-14T10:17:06.533Z,4.28
2022-09-14T10:19:34.385Z,6.85
2022-09-14T10:22:21.845Z,4.75
2022-09-14T10:25:05.459Z,3.40
2022-09-14T10:27:42.327Z,5.70
2022-09-14T10:30:22.866Z,5.38
2022-09-14T10:33:20.539Z,3.55
2022-09-14T10:36:09.714Z,5.13
2022-09-14T10:39:07.359Z,8.27
2022-09-14T10:42:08.346Z,7.70
2022-09-14T10:45:01.849Z,2.50
2022-09-14T10:47:42.896Z,2.63
2022-09-14T10:50:28.418Z,4.25
2022-09-14T10:53:15.337Z,2.92
2022-09-14T10:56:04.053Z,2.75
2022-09-14T10:58:55.368Z,4.45
2022-09-14T11:01:32.756Z,7.60
2022-09-14T11:04:11.862Z,5.40
2022-09-14T11:07:13.441Z,4.70
2022-09-14T11:10:08.349Z,6.53
2022-09-14T11:12:44.592Z,6.45
2022-09-14T11:15:26.598Z,6.68
2022-09-14T11:17:56.479Z,8.47
2022-09-14T11:20:48.984Z,5.88
2022-09-14T11:23:28.025Z,5.93
2022-09-14T11:25:57.684Z,4.78
2022-09-14T11:28:34.630Z,8.00
2022-09-14T11:31:12.524Z,5.28
2022-09-14T11:34:17.306Z,6.97
2022-09-14T11:36:48.850Z,7.57
2022-09-14T11:39:21.294Z,6.20
2022-09-14T11:42:26.913Z,6.00
2022-09-14T11:45:05.953Z,7.13
2022-09-14T11:47:40.088Z,4.13
2022-09-14T11:50:28.150Z,7.45
2022-09-14T11:53:10.302Z,6.60
2022-09-14T11:55:41.950Z,7.53
2022-09-14T11:58:18.222Z,12.05
2022-09-14T12:01:07.590Z,9.45
2022-09-14T12:03:59.942Z,12.18
2022-09-14T12:06:30.259Z,7.30
2022-09-14T12:09:22.827Z,6.43
2022-09-14T12:11:55.364Z,11.00
2022-09-14T12:14:28.852Z,5.80
2022-09-14T12:20:20.999Z,5.93
2022-09-14T12:22:50.373Z,11.40
2022-09-14T12:25:22.920Z,6.53
2022-09-14T12:30:42.153Z,8.10
2022-09-14T12:33:38.691Z,7.07
2022-09-14T12:36:21.633Z,9.73
2022-09-14T12:41:19.535Z,7.47
2022-09-14T12:43:47.529Z,8.30
2022-09-14T12:46:21.027Z,6.03
2022-09-14T12:48:48.418Z,5.95
2022-09-14T12:51:45.421Z,4.80
2022-09-14T12:54:51.508Z,5.88
2022-09-14T12:57:31.659Z,7.05
2022-09-14T13:00:08.813Z,5.32
2022-09-14T13:02:42.321Z,7.90
2022-09-14T13:05:23.893Z,5.78
2022-09-14T13:07:52.330Z,4.88
2022-09-14T13:10:36.473Z,6.35
2022-09-14T13:13:14.728Z,8.95
2022-09-14T13:16:00.743Z,10.23
2022-09-14T13:18:30.060Z,10.20
2022-09-14T13:21:00.072Z,11.23
2022-09-14T13:23:41.293Z,13.70
2022-09-14T13:26:17.017Z,8.27
2022-09-14T13:28:47.528Z,6.57
2022-09-14T13:31:19.190Z,4.57
2022-09-14T13:33:49.199Z,4.25
2022-09-14T13:36:20.483Z,9.48
2022-09-14T13:38:48.717Z,7.88
2022-09-14T13:41:18.527Z,7.95
2022-09-14T13:43:50.016Z,6.90
2022-09-14T13:46:20.378Z,9.40
2022-09-14T13:48:49.276Z,6.07
2022-09-14T13:51:17.706Z,8.88
2022-09-14T13:53:50.529Z,10.25
2022-09-14T13:56:32.783Z,7.70
2022-09-14T13:59:21.760Z,5.30
2022-09-14T14:02:03.384Z,7.47
2022-09-14T14:04:38.893Z,7.20
2022-09-14T14:07:14.104Z,10.13
2022-09-14T14:09:52.737Z,7.22
2022-09-14T14:12:28.445Z,7.78
2022-09-14T14:14:59.994Z,6.38
2022-09-14T14:17:29.898Z,9.15
2022-09-14T14:20:21.243Z,6.70
2022-09-14T14:23:00.294Z,11.10
2022-09-14T14:25:43.330Z,14.25
2022-09-14T14:28:21.021Z,9.07
2022-09-14T14:30:48.370Z,7.32
2022-09-14T14:33:20.893Z,6.53
2022-09-14T14:35:49.593Z,13.43
2022-09-14T14:38:16.741Z,10.93
2022-09-14T14:40:45.913Z,4.70
2022-09-14T14:50:26.807Z,5.25
2022-09-14T14:52:54.749Z,7.80
2022-09-14T14:55:23.992Z,8.15
2022-09-14T14:57:52.141Z,5.55
2022-09-14T15:00:22.076Z,8.57
2022-09-14T15:02:50.192Z,5.28
2022-09-14T15:05:18.033Z,4.80
2022-09-14T15:07:46.369Z,6.97
2022-09-14T15:10:16.934Z,6.88
2022-09-14T15:12:45.192Z,5.15
2022-09-14T15:15:19.484Z,7.25
2022-09-14T15:17:47.945Z,9.07
2022-09-14T15:20:15.658Z,6.63
2022-09-14T15:22:43.062Z,5.03
2022-09-14T15:25:11.545Z,8.02
2022-09-14T15:27:39.489Z,8.18
2022-09-14T15:30:08.925Z,6.55
2022-09-14T15:32:36.461Z,6.15
2022-09-14T15:35:05.062Z,5.70
2022-09-14T15:37:32.283Z,9.13
2022-09-14T15:39:59.405Z,5.70
2022-09-14T15:42:27.391Z,9.25
2022-09-14T15:44:54.440Z,7.60
2022-09-14T15:47:21.688Z,7.35
2022-09-14T15:49:52.874Z,6.07
2022-09-14T15:52:20.201Z,8.32
2022-09-14T15:54:48.147Z,8.25
2022-09-14T15:57:15.906Z,6.65
2022-09-14T15:59:42.994Z,11.98
2022-09-14T16:02:12.568Z,8.23
2022-09-14T16:04:42.980Z,9.93
2022-09-14T16:07:10.185Z,5.88
2022-09-14T16:09:41.740Z,5.82
2022-09-14T16:12:11.035Z,5.32
2022-09-14T16:14:38.555Z,6.43
2022-09-14T16:17:19.815Z,5.63
2022-09-14T16:19:49.405Z,7.63
2022-09-14T16:22:16.796Z,5.95
2022-09-14T16:24:43.950Z,7.22
2022-09-14T16:27:11.148Z,8.32
2022-09-14T16:29:39.524Z,6.95
2022-09-14T16:32:07.862Z,8.60
2022-09-14T16:34:36.730Z,8.68
2022-09-14T16:37:04.521Z,6.50
2022-09-14T16:39:32.054Z,5.80
2022-09-14T16:42:00.224Z,8.85
2022-09-14T16:44:28.763Z,8.82
2022-09-14T16:46:58.178Z,7.40
2022-09-14T16:49:27.830Z,5.18
2022-09-14T16:51:56.877Z,5.10
2022-09-14T16:54:25.946Z,5.72
2022-09-14T16:56:57.291Z,8.55
2022-09-14T16:59:25.086Z,7.68
2022-09-14T17:01:54.938Z,6.85
2022-09-14T17:04:23.868Z,7.90
2022-09-14T17:06:52.107Z,6.20
2022-09-14T17:09:27.490Z,5.50
2022-09-14T17:11:56.251Z,6.90
2022-09-14T17:14:27.073Z,11.45
2022-09-14T17:16:54.634Z,11.70
2022-09-14T17:19:22.311Z,9.32
2022-09-14T17:21:49.733Z,8.27
2022-09-14T17:24:19.036Z,8.30
2022-09-14T17:26:47.166Z,5.55
2022-09-14T17:29:15.427Z,4.50
2022-09-14T17:31:44.820Z,8.00
2022-09-14T17:34:14.282Z,8.95
2022-09-14T17:36:41.809Z,11.30
2022-09-14T17:39:12.234Z,7.13
2022-09-14T17:41:41.250Z,6.90
2022-09-14T17:44:11.386Z,8.05
2022-09-14T17:46:48.304Z,7.97
2022-09-14T17:49:19.565Z,4.80
2022-09-14T17:51:46.616Z,8.65
2022-09-14T17:54:13.904Z,9.80
2022-09-14T17:56:41.194Z,6.55
2022-09-14T17:59:14.328Z,7.78
2022-09-14T18:01:41.575Z,10.65
2022-09-14T18:04:13.221Z,10.73
2022-09-14T18:06:43.184Z,9.48
2022-09-14T18:09:14.378Z,11.55
2022-09-14T18:11:42.696Z,12.45
2022-09-14T18:14:12.960Z,9.60
2022-09-14T18:16:40.957Z,10.90
2022-09-14T18:19:08.791Z,8.63
2022-09-14T18:21:36.326Z,8.18
2022-09-14T18:24:03.997Z,10.60
2022-09-14T18:26:31.197Z,12.98
2022-09-14T18:28:58.884Z,11.05
2022-09-14T18:31:26.951Z,9.30
2022-09-14T18:33:59.255Z,8.55
2022-09-14T18:36:29.534Z,6.97
2022-09-14T18:38:58.695Z,8.60
2022-09-14T18:41:29.153Z,7.53
2022-09-14T18:43:56.238Z,13.52
2022-09-14T18:46:27.838Z,8.77
2022-09-14T18:49:00.202Z,9.93
2022-09-14T18:51:29.006Z,9.63
2022-09-14T18:53:58.363Z,11.95
2022-09-14T18:56:26.035Z,12.35
2022-09-14T18:58:53.099Z,12.93
2022-09-14T19:01:20.574Z,10.77
2022-09-14T19:03:49.033Z,11.35
2022-09-14T19:06:18.763Z,8.10
2022-09-14T19:08:47.060Z,7.28
2022-09-14T19:11:16.863Z,10.38
2022-09-14T19:13:45.691Z,11.73
2022-09-14T19:16:15.856Z,9.60
2022-09-14T19:18:44.537Z,12.55
2022-09-14T19:21:23.360Z,8.75
2022-09-14T19:23:59.091Z,16.73
2022-09-14T19:26:28.422Z,10.65
2022-09-14T19:28:57.002Z,12.80
2022-09-14T19:31:25.630Z,12.65
2022-09-14T19:33:53.438Z,14.77
2022-09-14T19:36:24.802Z,16.67
2022-09-14T19:38:53.050Z,17.60
2022-09-14T19:41:21.892Z,12.70
2022-09-14T19:43:49.572Z,22.77
2022-09-14T19:46:20.856Z,15.88
2022-09-14T19:48:50.606Z,12.48
2022-09-14T19:51:25.519Z,9.57
2022-09-14T19:53:54.852Z,5.25
2022-09-14T19:56:28.074Z,6.05
2022-09-14T19:58:59.044Z,4.03
2022-09-14T20:01:28.028Z,5.30
2022-09-14T20:03:55.802Z,5.53
2022-09-14T20:06:26.448Z,6.75
2022-09-14T20:08:57.482Z,4.93
2022-09-14T20:11:31.078Z,5.45
2022-09-14T20:14:00.399Z,4.50
2022-09-14T20:16:39.358Z,5.93
2022-09-14T20:19:14.793Z,4.15
2022-09-14T20:21:43.723Z,5.18
2022-09-14T20:24:18.982Z,5.10
2022-09-14T20:26:51.264Z,4.32
2022-09-14T20:29:20.241Z,5.03
2022-09-14T20:31:47.933Z,5.40
2022-09-14T20:34:18.535Z,4.88
2022-09-14T20:36:46.680Z,4.22
2022-09-14T20:39:15.289Z,4.57
2022-09-14T20:41:43.158Z,4.78
2022-09-14T20:44:10.828Z,5.10
2022-09-14T20:46:42.175Z,5.18
2022-09-14T20:49:14.556Z,5.38
2022-09-14T20:51:44.432Z,4.40
2022-09-14T20:54:15.297Z,5.45
2022-09-14T20:56:43.644Z,4.80
2022-09-14T20:59:16.963Z,2.33
2022-09-14T21:01:46.423Z,2.78
2022-09-14T21:04:16.244Z,4.10
2022-09-14T21:06:46.463Z,7.40
2022-09-14T21:09:15.387Z,3.80
2022-09-14T21:11:45.873Z,5.38
2022-09-14T21:14:18.153Z,3.10
2022-09-14T21:16:47.143Z,4.20
2022-09-14T21:19:23.283Z,4.10
2022-09-14T21:21:50.969Z,3.05
2022-09-14T21:24:19.665Z,5.43
2022-09-14T21:26:47.526Z,5.70
2022-09-14T21:29:21.054Z,5.90
2022-09-14T21:31:48.976Z,5.55
2022-09-14T21:34:16.426Z,3.17
2022-09-14T21:36:46.492Z,2.90
2022-09-14T21:39:17.262Z,4.30
2022-09-14T21:41:45.341Z,6.03
2022-09-14T21:44:13.998Z,3.88
2022-09-14T21:46:42.036Z,3.50
2022-09-14T21:49:14.323Z,3.60
2022-09-14T21:51:41.754Z,6.47
2022-09-14T21:54:10.901Z,3.95
2022-09-14T21:56:39.658Z,7.80
2022-09-14T21:59:13.102Z,5.10
2022-09-14T22:01:41.873Z,3.70
2022-09-14T22:04:15.757Z,4.85
2022-09-14T22:06:45.275Z,6.45
2022-09-14T22:09:14.146Z,2.83
2022-09-14T22:11:41.193Z,4.70
2022-09-14T22:14:18.401Z,4.22
2022-09-14T22:16:46.551Z,5.07
2022-09-14T22:19:25.718Z,2.45
2022-09-14T22:21:53.456Z,5.70
2022-09-14T22:24:23.792Z,4.32
2022-09-14T22:26:50.914Z,7.30
2022-09-14T22:29:19.195Z,4.40
2022-09-14T22:31:46.961Z,2.78
2022-09-14T22:34:14.596Z,5.85
2022-09-14T22:36:42.550Z,7.88
2022-09-14T22:39:10.949Z,4.85
2022-09-14T22:41:38.973Z,3.28
2022-09-14T22:44:07.380Z,4.72
2022-09-14T22:46:35.223Z,4.38
2022-09-14T22:49:02.749Z,6.70
2022-09-14T22:51:30.529Z,3.95
2022-09-14T22:53:58.064Z,3.40
2022-09-14T22:56:29.706Z,4.50
2022-09-14T22:58:57.170Z,3.67
2022-09-14T23:01:30.027Z,2.97
2022-09-14T23:04:00.609Z,5.47
2022-09-14T23:06:33.877Z,3.50
2022-09-14T23:09:01.601Z,6.28
2022-09-14T23:11:29.054Z,2.72
2022-09-14T23:13:57.978Z,3.90
2022-09-14T23:16:27.006Z,4.38
2022-09-14T23:18:57.018Z,5.10
2022-09-14T23:21:25.013Z,4.80
2022-09-14T23:23:54.578Z,4.90
2022-09-14T23:26:23.218Z,5.25
2022-09-14T23:28:59.925Z,3.25
2022-09-14T23:31:29.122Z,5.82
2022-09-14T23:33:58.790Z,6.78
2022-09-14T23:36:26.903Z,6.10
2022-09-14T23:38:54.230Z,5.45
2022-09-14T23:41:23.773Z,4.80
2022-09-14T23:43:51.930Z,5.65
2022-09-14T23:46:19.483Z,7.47
2022-09-14T23:48:46.760Z,6.75
2022-09-14T23:51:14.763Z,4.10
2022-09-14T23:53:43.326Z,7.32
2022-09-14T23:56:11.627Z,6.32
2022-09-14T23:58:41.517Z,7.40
